JAF3035 HELX-HESH
Flight info
| Callsign | JAF3035 |
|---|---|
| Flight time | 0h 34m |
| Altitude | 20000 |
| Route | LXR L604 ASRAB R650 SHM |
| Aircraft | B38M/M-SDE1FGHILORVWXY/HB1 |
Departure
| Time | 2026-04-21 07:37 |
|---|---|
| Airport | Luxor International Airport (HELX) |
Arrival
| Time | 2026-04-21 08:11 |
|---|---|
| Airport | Sharm El Sheikh International Airport (HESH) |
| Time | Latitude | Longitude | Altitude | Speed | Heading |
|---|---|---|---|---|---|
| 2026-04-21 07:17 | 25.67268 | 32.70105 | 294 ft | 0 kts | 296° |
| 2026-04-21 07:28 | 25.67266 | 32.70111 | 294 ft | 2 kts | 296° |
| 2026-04-21 07:28 | 25.67257 | 32.70130 | 300 ft | 3 kts | 296° |
| 2026-04-21 07:29 | 25.67248 | 32.70150 | 296 ft | 3 kts | 296° |
| 2026-04-21 07:29 | 25.67240 | 32.70171 | 294 ft | 3 kts | 296° |
| 2026-04-21 07:29 | 25.67232 | 32.70189 | 300 ft | 2 kts | 296° |
| 2026-04-21 07:29 | 25.67226 | 32.70207 | 294 ft | 3 kts | 270° |
| 2026-04-21 07:30 | 25.67231 | 32.70224 | 294 ft | 3 kts | 222° |
| 2026-04-21 07:30 | 25.67245 | 32.70235 | 294 ft | 2 kts | 207° |
| 2026-04-21 07:30 | 25.67252 | 32.70238 | 294 ft | 0 kts | 206° |
| 2026-04-21 07:30 | 25.67252 | 32.70239 | 294 ft | 0 kts | 206° |
| 2026-04-21 07:32 | 25.67250 | 32.70238 | 297 ft | 1 kts | 206° |
| 2026-04-21 07:32 | 25.67230 | 32.70227 | 294 ft | 7 kts | 206° |
| 2026-04-21 07:32 | 25.67163 | 32.70189 | 300 ft | 13 kts | 206° |
| 2026-04-21 07:33 | 25.67091 | 32.70173 | 299 ft | 7 kts | 149° |
| 2026-04-21 07:33 | 25.67071 | 32.70211 | 296 ft | 6 kts | 113° |
| 2026-04-21 07:33 | 25.67049 | 32.70264 | 299 ft | 10 kts | 114° |
| 2026-04-21 07:33 | 25.67013 | 32.70352 | 299 ft | 16 kts | 117° |
| 2026-04-21 07:34 | 25.66907 | 32.70384 | 298 ft | 19 kts | 202° |
| 2026-04-21 07:34 | 25.66786 | 32.70324 | 299 ft | 20 kts | 203° |
| 2026-04-21 07:34 | 25.66654 | 32.70262 | 302 ft | 21 kts | 202° |
| 2026-04-21 07:34 | 25.66509 | 32.70196 | 300 ft | 24 kts | 202° |
| 2026-04-21 07:35 | 25.66349 | 32.70121 | 303 ft | 26 kts | 202° |
| 2026-04-21 07:35 | 25.66181 | 32.70045 | 304 ft | 26 kts | 202° |
| 2026-04-21 07:35 | 25.66077 | 32.70035 | 305 ft | 10 kts | 137° |
| 2026-04-21 07:35 | 25.66048 | 32.70099 | 304 ft | 10 kts | 113° |
| 2026-04-21 07:36 | 25.66053 | 32.70158 | 306 ft | 7 kts | 40° |
| 2026-04-21 07:36 | 25.66106 | 32.70185 | 304 ft | 21 kts | 22° |
| 2026-04-21 07:36 | 25.66492 | 32.70365 | 302 ft | 98 kts | 22° |
| 2026-04-21 07:36 | 25.67328 | 32.70748 | 294 ft | 159 kts | 23° |
| 2026-04-21 07:37 | 25.68465 | 32.71289 | 589 ft | 186 kts | 25° |
| 2026-04-21 07:37 | 25.69630 | 32.71824 | 1640 ft | 173 kts | 31° |
| 2026-04-21 07:37 | 25.70563 | 32.72671 | 2512 ft | 182 kts | 46° |
| 2026-04-21 07:37 | 25.71537 | 32.73671 | 3241 ft | 200 kts | 43° |
| 2026-04-21 07:38 | 25.72660 | 32.74752 | 3671 ft | 229 kts | 39° |
| 2026-04-21 07:38 | 25.73909 | 32.75895 | 4434 ft | 238 kts | 40° |
| 2026-04-21 07:38 | 25.74888 | 32.77453 | 5074 ft | 260 kts | 66° |
| 2026-04-21 07:38 | 25.75257 | 32.79498 | 5716 ft | 279 kts | 80° |
| 2026-04-21 07:39 | 25.75521 | 32.81635 | 6671 ft | 281 kts | 79° |
| 2026-04-21 07:39 | 25.75794 | 32.83802 | 7534 ft | 286 kts | 80° |
| 2026-04-21 07:39 | 25.76067 | 32.86006 | 8474 ft | 291 kts | 79° |
| 2026-04-21 07:39 | 25.76340 | 32.88224 | 9328 ft | 296 kts | 80° |
| 2026-04-21 07:40 | 25.76620 | 32.90507 | 10117 ft | 301 kts | 80° |
| 2026-04-21 07:40 | 25.76910 | 32.92870 | 10651 ft | 318 kts | 81° |
| 2026-04-21 07:40 | 25.77215 | 32.95365 | 11153 ft | 333 kts | 81° |
| 2026-04-21 07:40 | 25.77530 | 32.97955 | 11747 ft | 344 kts | 81° |
| 2026-04-21 07:41 | 25.77855 | 33.00628 | 12356 ft | 354 kts | 81° |
| 2026-04-21 07:41 | 25.78186 | 33.03353 | 13056 ft | 360 kts | 81° |
| 2026-04-21 07:41 | 25.78531 | 33.06129 | 13749 ft | 366 kts | 79° |
| 2026-04-21 07:41 | 25.79359 | 33.08792 | 14438 ft | 366 kts | 57° |
| 2026-04-21 07:42 | 25.80964 | 33.10968 | 15077 ft | 365 kts | 35° |
| 2026-04-21 07:42 | 25.83115 | 33.12423 | 15708 ft | 363 kts | 19° |
| 2026-04-21 07:42 | 25.85401 | 33.13591 | 16333 ft | 368 kts | 19° |
| 2026-04-21 07:42 | 25.87777 | 33.14792 | 17006 ft | 372 kts | 18° |
| 2026-04-21 07:43 | 25.90122 | 33.15962 | 17628 ft | 376 kts | 18° |
| 2026-04-21 07:43 | 25.92529 | 33.17153 | 18216 ft | 381 kts | 17° |
| 2026-04-21 07:43 | 25.94970 | 33.18359 | 18809 ft | 385 kts | 17° |
| 2026-04-21 07:43 | 25.97429 | 33.19571 | 19398 ft | 388 kts | 17° |
| 2026-04-21 07:44 | 25.99917 | 33.20799 | 19874 ft | 395 kts | 17° |
| 2026-04-21 07:44 | 26.02426 | 33.22038 | 19993 ft | 393 kts | 17° |
| 2026-04-21 07:44 | 26.04920 | 33.23269 | 20032 ft | 392 kts | 17° |
| 2026-04-21 07:44 | 26.07410 | 33.24500 | 20012 ft | 391 kts | 17° |
| 2026-04-21 07:45 | 26.09890 | 33.25726 | 20017 ft | 391 kts | 17° |
| 2026-04-21 07:45 | 26.12376 | 33.26955 | 20014 ft | 390 kts | 17° |
| 2026-04-21 07:45 | 26.14864 | 33.28185 | 20018 ft | 391 kts | 17° |
| 2026-04-21 07:45 | 26.17337 | 33.29409 | 20018 ft | 391 kts | 17° |
| 2026-04-21 07:46 | 26.19811 | 33.30634 | 20026 ft | 391 kts | 17° |
| 2026-04-21 07:46 | 26.22299 | 33.31866 | 20014 ft | 391 kts | 17° |
| 2026-04-21 07:46 | 26.24779 | 33.33096 | 20011 ft | 391 kts | 17° |
| 2026-04-21 07:46 | 26.27262 | 33.34327 | 20021 ft | 391 kts | 17° |
| 2026-04-21 07:47 | 26.29745 | 33.35559 | 20016 ft | 391 kts | 17° |
| 2026-04-21 07:47 | 26.32233 | 33.36793 | 20021 ft | 391 kts | 17° |
| 2026-04-21 07:47 | 26.34719 | 33.38027 | 20017 ft | 391 kts | 17° |
| 2026-04-21 07:47 | 26.37206 | 33.39263 | 20023 ft | 391 kts | 17° |
| 2026-04-21 07:48 | 26.39689 | 33.40497 | 20018 ft | 391 kts | 17° |
| 2026-04-21 07:48 | 26.42177 | 33.41734 | 20035 ft | 391 kts | 17° |
| 2026-04-21 07:48 | 26.44668 | 33.42973 | 20026 ft | 391 kts | 17° |
| 2026-04-21 07:48 | 26.47124 | 33.44198 | 20032 ft | 391 kts | 17° |
| 2026-04-21 07:49 | 26.49610 | 33.45436 | 20022 ft | 391 kts | 17° |
| 2026-04-21 07:49 | 26.52094 | 33.46675 | 20029 ft | 391 kts | 17° |
| 2026-04-21 07:49 | 26.54578 | 33.47914 | 20029 ft | 390 kts | 17° |
| 2026-04-21 07:49 | 26.57056 | 33.49151 | 20024 ft | 390 kts | 17° |
| 2026-04-21 07:50 | 26.59536 | 33.50390 | 20023 ft | 390 kts | 17° |
| 2026-04-21 07:50 | 26.62017 | 33.51630 | 20034 ft | 390 kts | 17° |
| 2026-04-21 07:50 | 26.64499 | 33.52869 | 20022 ft | 390 kts | 17° |
| 2026-04-21 07:50 | 26.66977 | 33.54108 | 20031 ft | 390 kts | 17° |
| 2026-04-21 07:51 | 26.69451 | 33.55347 | 20039 ft | 390 kts | 17° |
| 2026-04-21 07:51 | 26.71899 | 33.56574 | 19871 ft | 381 kts | 17° |
| 2026-04-21 07:51 | 26.74302 | 33.57777 | 19541 ft | 377 kts | 17° |
| 2026-04-21 07:51 | 26.76688 | 33.58972 | 19193 ft | 373 kts | 17° |
| 2026-04-21 07:52 | 26.79048 | 33.60155 | 18840 ft | 370 kts | 17° |
| 2026-04-21 07:52 | 26.81391 | 33.61329 | 18432 ft | 368 kts | 18° |
| 2026-04-21 07:52 | 26.83724 | 33.62499 | 18083 ft | 364 kts | 18° |
| 2026-04-21 07:52 | 26.85998 | 33.63641 | 17743 ft | 362 kts | 18° |
| 2026-04-21 07:53 | 26.88292 | 33.64791 | 17379 ft | 360 kts | 18° |
| 2026-04-21 07:53 | 26.90568 | 33.65935 | 17031 ft | 356 kts | 18° |
| 2026-04-21 07:53 | 26.92822 | 33.67068 | 16684 ft | 353 kts | 19° |
| 2026-04-21 07:53 | 26.95061 | 33.68193 | 16317 ft | 351 kts | 19° |
| 2026-04-21 07:54 | 26.97286 | 33.69312 | 15958 ft | 349 kts | 19° |
| 2026-04-21 07:54 | 26.99489 | 33.70420 | 15613 ft | 346 kts | 19° |
| 2026-04-21 07:54 | 27.01689 | 33.71528 | 15251 ft | 350 kts | 19° |
| 2026-04-21 07:54 | 27.03961 | 33.72672 | 14839 ft | 363 kts | 20° |
| 2026-04-21 07:55 | 27.06290 | 33.73844 | 14476 ft | 372 kts | 20° |
| 2026-04-21 07:55 | 27.08636 | 33.75027 | 14103 ft | 377 kts | 20° |
| 2026-04-21 07:55 | 27.11028 | 33.76234 | 13719 ft | 377 kts | 20° |
| 2026-04-21 07:55 | 27.13413 | 33.77438 | 13339 ft | 375 kts | 20° |
| 2026-04-21 07:56 | 27.15788 | 33.78636 | 12953 ft | 373 kts | 21° |
| 2026-04-21 07:56 | 27.18128 | 33.79874 | 12536 ft | 372 kts | 27° |
| 2026-04-21 07:56 | 27.20261 | 33.81527 | 12134 ft | 371 kts | 32° |
| 2026-04-21 07:56 | 27.22379 | 33.83164 | 11778 ft | 367 kts | 31° |
| 2026-04-21 07:57 | 27.24489 | 33.84765 | 11425 ft | 365 kts | 31° |
| 2026-04-21 07:57 | 27.26596 | 33.86346 | 11034 ft | 363 kts | 31° |
| 2026-04-21 07:57 | 27.28689 | 33.87907 | 10660 ft | 359 kts | 31° |
| 2026-04-21 07:57 | 27.30759 | 33.89445 | 10309 ft | 354 kts | 32° |
| 2026-04-21 07:58 | 27.32107 | 33.90447 | 10204 ft | 347 kts | 32° |
| 2026-04-21 07:58 | 27.34088 | 33.91918 | 10007 ft | 337 kts | 32° |
| 2026-04-21 07:58 | 27.36040 | 33.93367 | 9614 ft | 334 kts | 32° |
| 2026-04-21 07:58 | 27.37958 | 33.94793 | 9258 ft | 324 kts | 33° |
| 2026-04-21 07:59 | 27.40385 | 33.96597 | 8823 ft | 306 kts | 33° |
| 2026-04-21 07:59 | 27.41573 | 33.97481 | 8615 ft | 298 kts | 33° |
| 2026-04-21 07:59 | 27.43269 | 33.98742 | 8295 ft | 287 kts | 33° |
| 2026-04-21 07:59 | 27.44899 | 33.99956 | 7998 ft | 276 kts | 33° |
| 2026-04-21 08:00 | 27.46495 | 34.01143 | 7718 ft | 273 kts | 34° |
| 2026-04-21 08:00 | 27.48055 | 34.02306 | 7437 ft | 272 kts | 34° |
| 2026-04-21 08:00 | 27.49639 | 34.03484 | 7110 ft | 272 kts | 34° |
| 2026-04-21 08:00 | 27.51212 | 34.04657 | 6817 ft | 270 kts | 34° |
| 2026-04-21 08:01 | 27.52787 | 34.05749 | 6515 ft | 268 kts | 25° |
| 2026-04-21 08:01 | 27.54544 | 34.06506 | 6203 ft | 267 kts | 20° |
| 2026-04-21 08:01 | 27.56280 | 34.07217 | 5893 ft | 263 kts | 20° |
| 2026-04-21 08:02 | 27.59575 | 34.08581 | 5382 ft | 241 kts | 20° |
| 2026-04-21 08:02 | 27.61116 | 34.09222 | 5118 ft | 234 kts | 20° |
| 2026-04-21 08:02 | 27.62636 | 34.09855 | 4877 ft | 230 kts | 20° |
| 2026-04-21 08:02 | 27.64121 | 34.10474 | 4720 ft | 225 kts | 20° |
| 2026-04-21 08:03 | 27.65586 | 34.11085 | 4614 ft | 224 kts | 20° |
| 2026-04-21 08:03 | 27.67046 | 34.11695 | 4506 ft | 222 kts | 20° |
| 2026-04-21 08:03 | 27.68494 | 34.12299 | 4375 ft | 221 kts | 20° |
| 2026-04-21 08:03 | 27.69940 | 34.12903 | 4212 ft | 220 kts | 20° |
| 2026-04-21 08:04 | 27.71373 | 34.13503 | 4112 ft | 219 kts | 20° |
| 2026-04-21 08:04 | 27.72766 | 34.14112 | 4028 ft | 220 kts | 24° |
| 2026-04-21 08:04 | 27.74121 | 34.14973 | 3849 ft | 219 kts | 34° |
| 2026-04-21 08:04 | 27.75322 | 34.15993 | 3673 ft | 218 kts | 38° |
| 2026-04-21 08:05 | 27.76484 | 34.17089 | 3529 ft | 215 kts | 40° |
| 2026-04-21 08:05 | 27.77581 | 34.18183 | 3392 ft | 207 kts | 40° |
| 2026-04-21 08:05 | 27.78631 | 34.19260 | 3242 ft | 202 kts | 40° |
| 2026-04-21 08:05 | 27.79662 | 34.20325 | 3126 ft | 200 kts | 41° |
| 2026-04-21 08:06 | 27.80672 | 34.21375 | 2983 ft | 193 kts | 41° |
| 2026-04-21 08:06 | 27.81615 | 34.22355 | 2940 ft | 177 kts | 41° |
| 2026-04-21 08:06 | 27.82518 | 34.23297 | 3007 ft | 176 kts | 40° |
| 2026-04-21 08:06 | 27.83418 | 34.24235 | 2998 ft | 176 kts | 40° |
| 2026-04-21 08:07 | 27.84319 | 34.25176 | 3025 ft | 175 kts | 40° |
| 2026-04-21 08:07 | 27.85218 | 34.26115 | 3042 ft | 177 kts | 40° |
| 2026-04-21 08:07 | 27.86123 | 34.27057 | 2914 ft | 177 kts | 41° |
| 2026-04-21 08:07 | 27.87026 | 34.27999 | 2705 ft | 176 kts | 43° |
| 2026-04-21 08:08 | 27.87920 | 34.28928 | 2451 ft | 174 kts | 44° |
| 2026-04-21 08:08 | 27.88808 | 34.29855 | 2274 ft | 178 kts | 46° |
| 2026-04-21 08:08 | 27.89726 | 34.30821 | 2050 ft | 183 kts | 45° |
| 2026-04-21 08:08 | 27.90666 | 34.31812 | 1734 ft | 183 kts | 44° |
| 2026-04-21 08:09 | 27.91561 | 34.32740 | 1666 ft | 164 kts | 46° |
| 2026-04-21 08:09 | 27.92407 | 34.33634 | 1553 ft | 170 kts | 44° |
| 2026-04-21 08:09 | 27.93248 | 34.34554 | 1282 ft | 162 kts | 43° |
| 2026-04-21 08:09 | 27.94023 | 34.35401 | 1036 ft | 148 kts | 39° |
| 2026-04-21 08:10 | 27.94841 | 34.36155 | 788 ft | 154 kts | 38° |
| 2026-04-21 08:10 | 27.95628 | 34.36990 | 535 ft | 153 kts | 44° |
| 2026-04-21 08:10 | 27.96376 | 34.37789 | 313 ft | 144 kts | 38° |
| 2026-04-21 08:10 | 27.97112 | 34.38528 | 146 ft | 136 kts | 41° |
| 2026-04-21 08:11 | 27.97681 | 34.39118 | 137 ft | 82 kts | 43° |
| 2026-04-21 08:11 | 27.97914 | 34.39342 | 137 ft | 21 kts | 4° |
| 2026-04-21 08:11 | 27.97978 | 34.39279 | 137 ft | 13 kts | 312° |
| 2026-04-21 08:11 | 27.98032 | 34.39213 | 137 ft | 12 kts | 312° |
| 2026-04-21 08:12 | 27.98075 | 34.39158 | 136 ft | 7 kts | 301° |
| 2026-04-21 08:12 | 27.98074 | 34.39128 | 136 ft | 3 kts | 233° |
| 2026-04-21 08:12 | 27.98046 | 34.39088 | 136 ft | 5 kts | 241° |
| 2026-04-21 08:12 | 27.98047 | 34.39080 | 136 ft | 0 kts | 295° |
| 2026-04-21 08:13 | 27.98062 | 34.39070 | 136 ft | 4 kts | 337° |
| 2026-04-21 08:13 | 27.98096 | 34.39040 | 136 ft | 9 kts | 314° |
| 2026-04-21 08:13 | 27.98103 | 34.39031 | 136 ft | 0 kts | 314° |
| 2026-04-21 08:14 | 27.98056 | 34.39003 | 136 ft | 0 kts | 133° |